Terminal Aerodrome Forecast
Issued by NWS

Home | Current Version | Previous Version | Text Only | Print | Product List | Glossary On
Versions: 1 2 3 4 5 6 7 8 9 10 11 12
000
FTUS42 TJSJ 211144
TAFJSJ
TAF
TJSJ 211144Z 2112/2212 09012KT P6SM VCSH FEW025 SCT040 SCT090
     FM211330 07016G26KT P6SM VCSH FEW025 SCT035
     FM212200 08010KT P6SM SCT030=

USA.gov is the U.S. government's official web portal to all federal, state and local government web resources and services.